createdAt,value
2023-05-03T00:01:20.971Z,73.02
2023-05-03T00:06:26.289Z,72.71
2023-05-03T00:11:27.488Z,72.55
2023-05-03T00:16:28.893Z,72.19
2023-05-03T00:21:32.433Z,71.85
2023-05-03T00:26:36.537Z,71.94
2023-05-03T00:31:55.605Z,71.59
2023-05-03T00:37:16.890Z,71.99
2023-05-03T00:42:26.429Z,71.69
2023-05-03T00:47:37.775Z,71.61
2023-05-03T00:52:40.012Z,71.76
2023-05-03T00:57:42.738Z,71.72
2023-05-03T01:02:44.437Z,71.50
2023-05-03T01:08:08.612Z,71.67
2023-05-03T01:13:27.822Z,71.76
2023-05-03T01:18:39.704Z,71.73
2023-05-03T01:24:03.247Z,71.64
2023-05-03T01:29:04.804Z,71.73
2023-05-03T01:34:28.395Z,71.87
2023-05-03T01:39:36.787Z,71.70
2023-05-03T01:44:39.661Z,71.77
2023-05-03T01:49:41.154Z,71.87
2023-05-03T01:54:42.698Z,71.71
2023-05-03T01:59:44.229Z,71.59
2023-05-03T02:04:45.828Z,71.71
2023-05-03T02:10:47.244Z,71.71
2023-05-03T02:16:45.297Z,71.72
2023-05-03T02:21:48.132Z,71.71
2023-05-03T02:26:50.579Z,71.77
2023-05-03T02:31:51.985Z,71.96
2023-05-03T02:36:53.791Z,71.97
2023-05-03T02:41:56.467Z,72.08
2023-05-03T02:46:58.169Z,72.16
2023-05-03T02:52:00.465Z,72.32
2023-05-03T02:57:02.496Z,72.48
2023-05-03T03:02:04.001Z,72.66
2023-05-03T03:07:06.406Z,72.88
2023-05-03T03:12:08.035Z,72.93
2023-05-03T03:18:09.583Z,73.24
2023-05-03T03:24:30.792Z,73.64
2023-05-03T03:30:52.264Z,73.71
2023-05-03T03:37:16.462Z,73.93
2023-05-03T03:43:38.264Z,73.99
2023-05-03T03:50:10.687Z,74.19
2023-05-03T03:56:32.664Z,74.25
2023-05-03T04:02:54.452Z,74.57
2023-05-03T04:08:16.434Z,74.33
2023-05-03T04:13:18.597Z,74.20
2023-05-03T04:18:22.487Z,74.24
2023-05-03T04:24:24.243Z,74.22
2023-05-03T04:30:45.868Z,74.21
2023-05-03T04:37:07.490Z,74.03
2023-05-03T04:43:28.589Z,74.16
2023-05-03T04:49:49.833Z,74.03
2023-05-03T04:56:11.224Z,73.51
2023-05-03T05:02:33.988Z,72.69
2023-05-03T05:07:35.672Z,72.25
2023-05-03T05:12:37.653Z,72.01
2023-05-03T05:17:40.031Z,71.85
2023-05-03T05:22:42.077Z,71.49
2023-05-03T05:27:43.742Z,71.19
2023-05-03T05:32:45.854Z,70.95
2023-05-03T05:37:47.611Z,70.56
2023-05-03T05:42:49.746Z,70.53
2023-05-03T05:47:52.373Z,70.44
2023-05-03T05:52:54.212Z,70.30
2023-05-03T05:57:55.937Z,70.17
2023-05-03T06:03:00.262Z,69.97
2023-05-03T06:08:02.139Z,69.95
2023-05-03T06:13:03.680Z,69.79
2023-05-03T06:18:05.601Z,69.64
2023-05-03T06:24:06.751Z,69.76
2023-05-03T06:30:28.126Z,69.76
2023-05-03T06:36:53.072Z,69.77
2023-05-03T06:43:14.220Z,69.47
2023-05-03T06:49:50.029Z,68.97
2023-05-03T06:55:12.715Z,68.70
2023-05-03T07:00:15.377Z,68.15
2023-05-03T07:06:26.561Z,67.61
2023-05-03T07:12:47.627Z,67.26
2023-05-03T07:19:08.730Z,66.94
2023-05-03T07:25:29.659Z,66.96
2023-05-03T07:31:53.331Z,66.72
2023-05-03T07:38:14.500Z,66.25
2023-05-03T07:44:35.494Z,66.15
2023-05-03T07:49:56.816Z,65.64
2023-05-03T07:54:58.650Z,65.21
2023-05-03T08:00:00.579Z,65.09
2023-05-03T08:05:05.369Z,64.71
2023-05-03T08:11:06.924Z,64.04
2023-05-03T08:17:28.063Z,63.47
2023-05-03T08:23:49.158Z,63.16
2023-05-03T08:30:10.069Z,62.27
2023-05-03T08:36:31.186Z,61.76
2023-05-03T08:42:55.385Z,61.27
2023-05-03T08:48:17.216Z,60.90
2023-05-03T08:53:18.518Z,60.26
2023-05-03T08:58:20.428Z,59.92
2023-05-03T09:03:21.944Z,59.95
2023-05-03T09:08:23.385Z,60.18
2023-05-03T09:13:33.604Z,59.96
2023-05-03T09:18:38.598Z,60.03
2023-05-03T09:24:24.549Z,59.66
2023-05-03T09:31:07.665Z,59.66
2023-05-03T09:36:56.315Z,59.33
2023-05-03T09:42:06.721Z,58.63
2023-05-03T09:52:17.591Z,58.88
2023-05-03T09:58:39.653Z,59.13
2023-05-03T10:05:00.761Z,58.76
2023-05-03T10:11:21.855Z,58.71
2023-05-03T10:17:48.720Z,58.47
2023-05-03T10:24:09.938Z,58.34
2023-05-03T10:29:54.159Z,58.41
2023-05-03T10:36:15.344Z,58.07
2023-05-03T10:42:36.375Z,57.82
2023-05-03T10:48:32.836Z,57.61
2023-05-03T10:54:53.853Z,57.35
2023-05-03T11:01:10.288Z,56.67
2023-05-03T11:07:32.418Z,55.48
2023-05-03T11:13:53.525Z,54.66
2023-05-03T11:20:16.994Z,52.09
2023-05-03T11:26:38.842Z,48.96
2023-05-03T11:32:59.963Z,47.39
2023-05-03T11:39:21.252Z,48.19
2023-05-03T11:44:42.568Z,47.01
2023-05-03T11:49:54.709Z,44.97
2023-05-03T11:55:56.016Z,42.67
2023-05-03T12:02:05.325Z,40.29
2023-05-03T12:09:29.197Z,39.35
2023-05-03T12:16:46.456Z,40.25
2023-05-03T12:24:11.300Z,39.77
2023-05-03T12:31:17.430Z,39.50
2023-05-03T12:38:23.651Z,38.33
2023-05-03T12:45:28.493Z,37.99
2023-05-03T12:52:38.383Z,37.84
2023-05-03T12:59:43.120Z,39.19
2023-05-03T13:06:47.413Z,39.71
2023-05-03T13:13:31.290Z,40.16
2023-05-03T13:20:34.180Z,40.90
2023-05-03T13:27:38.655Z,41.03
2023-05-03T13:34:38.245Z,41.24
2023-05-03T13:41:41.122Z,40.62
2023-05-03T13:48:44.127Z,40.19
2023-05-03T13:55:47.053Z,40.02
2023-05-03T14:02:50.136Z,39.23
2023-05-03T14:09:52.877Z,39.91
2023-05-03T14:16:53.271Z,40.31
2023-05-03T14:24:12.553Z,40.39
2023-05-03T15:01:04.062Z,38.07
2023-05-03T15:14:57.441Z,37.23
2023-05-03T15:22:00.622Z,37.07
2023-05-03T15:29:03.599Z,36.93
2023-05-03T15:36:06.706Z,36.74
2023-05-03T15:43:13.659Z,37.81
2023-05-03T15:50:16.630Z,38.70
2023-05-03T15:57:19.649Z,39.26
2023-05-03T16:04:12.139Z,39.97
2023-05-03T16:11:15.981Z,40.31
2023-05-03T16:18:10.906Z,41.13
2023-05-03T16:25:13.997Z,41.52
2023-05-03T16:32:09.004Z,41.45
2023-05-03T16:38:54.698Z,41.34
2023-05-03T16:44:51.694Z,41.36
2023-05-03T16:51:54.763Z,41.22
2023-05-03T16:58:57.768Z,41.31
2023-05-03T17:06:02.231Z,41.50
2023-05-03T17:13:06.463Z,41.93
2023-05-03T17:20:09.890Z,42.18
2023-05-03T17:27:12.877Z,42.71
2023-05-03T17:34:16.079Z,43.07
2023-05-03T17:41:19.393Z,43.61
2023-05-03T17:47:58.779Z,43.85
2023-05-03T17:54:07.135Z,43.95
2023-05-03T18:00:48.868Z,43.93
2023-05-03T18:07:00.372Z,44.07
2023-05-03T18:14:06.563Z,44.57
2023-05-03T18:21:09.852Z,45.10
2023-05-03T18:28:03.597Z,45.64
2023-05-03T18:35:06.612Z,46.18
2023-05-03T18:42:09.881Z,47.12
2023-05-03T18:49:13.092Z,47.82
2023-05-03T18:56:17.383Z,48.50
2023-05-03T19:03:21.774Z,48.96
2023-05-03T19:10:26.983Z,49.38
2023-05-03T19:17:31.042Z,49.80
2023-05-03T19:24:35.873Z,49.66
2023-05-03T19:31:39.593Z,49.79
2023-05-03T19:38:42.448Z,49.79
2023-05-03T19:45:19.641Z,50.15
2023-05-03T19:52:02.184Z,50.50
2023-05-03T19:59:06.592Z,50.82
2023-05-03T20:06:11.733Z,51.35
2023-05-03T20:13:14.669Z,51.51
2023-05-03T20:20:18.927Z,53.62
2023-05-03T20:27:23.560Z,54.05
2023-05-03T20:34:29.297Z,54.52
2023-05-03T20:41:32.401Z,55.32
2023-05-03T20:48:36.118Z,55.52
2023-05-03T20:55:39.084Z,55.82
2023-05-03T21:02:42.194Z,56.28
2023-05-03T21:09:46.597Z,56.43
2023-05-03T21:16:49.451Z,56.52
2023-05-03T21:23:54.394Z,56.83
2023-05-03T21:30:59.383Z,56.95
2023-05-03T21:38:02.375Z,57.36
2023-05-03T21:45:06.710Z,57.69
2023-05-03T21:52:10.991Z,57.88
2023-05-03T21:59:18.812Z,57.89
2023-05-03T22:06:21.761Z,58.21
2023-05-03T22:13:24.674Z,58.38
2023-05-03T22:20:28.898Z,58.40
2023-05-03T22:27:31.910Z,58.67
2023-05-03T22:34:34.958Z,58.81
2023-05-03T22:41:37.712Z,59.05
2023-05-03T22:48:40.591Z,59.37
2023-05-03T22:55:50.293Z,59.69
2023-05-03T23:02:53.305Z,60.04
2023-05-03T23:09:56.450Z,60.45
2023-05-03T23:16:59.934Z,60.85
2023-05-03T23:24:02.956Z,61.20
2023-05-03T23:31:07.381Z,61.52
2023-05-03T23:38:11.330Z,61.45
2023-05-03T23:45:14.874Z,61.56
2023-05-03T23:52:19.807Z,61.53
2023-05-03T23:59:25.557Z,61.63
